Accueil
METAR-TAF:

METAR-TAF

Aéroports :

Suva, Fidji

Aéroport de Suva-Nausori

latitude: 18-03S, longitude: 178-34E, altitude: 5 m

Observation

Le bulletin a été fait il y a 44 minutes, à 09:00 UTC
Vent 6 kt de est/sud-est
Température 27°C
Humidité 84%
Pression 1007 hPa
Visibilité 10 km ou plus
Nuages épars à une hauteur de 2200 ft

METAR: NFNA 240900Z 11006KT 9999 SCT022 27/24 Q1007

Heure: 21:44 (09:44 UTC)

Prévision

Le bulletin a été fait il y a 4 heures et 26 minutes, à 05:18 UTC
Prévision valable du 24 à 06 UTC au 25 à 06 UTC
Vent 8 kt de est/sud-est
Visibilité 10 km ou plus
Nuages épars à une hauteur de 2000 ft

TAF: NFNA 240518Z 2406/2506 11008KT 9999 SCT020

Observations et prévisions météorologiques de plus de 4000 aéroports (messages METAR et TAF).

Les stations disponibles sont représentées par des disques jaunes et rouges sur la carte.

Passer la souris dessus pour voir le nom de la station.

Cliquer dessus pour voir les observations et prévisions météorologiques.

Pour changer de carte: cliquez sur les boutons verts avec une croix noire pour zoomer, sur le bouton vert avec un tiret pour effectuer un zoom arrière, ou sur les flèches vertes pour les cartes adjacentes.


METAR-TAF: